sensor_id;sensor_type;location;lat;lon;timestamp;P1;durP1;ratioP1;P2;durP2;ratioP2
53879;SDS011;39791;53.184;5.486;2023-08-06T00:00:09;41.72;;;38.22;;
53879;SDS011;39791;53.184;5.486;2023-08-06T00:02:35;42.70;;;39.10;;
53879;SDS011;39791;53.184;5.486;2023-08-06T00:05:00;44.47;;;40.78;;
53879;SDS011;39791;53.184;5.486;2023-08-06T00:07:26;44.40;;;40.75;;
53879;SDS011;39791;53.184;5.486;2023-08-06T00:09:52;43.28;;;39.67;;
53879;SDS011;39791;53.184;5.486;2023-08-06T00:12:17;41.38;;;37.88;;
53879;SDS011;39791;53.184;5.486;2023-08-06T00:14:43;41.58;;;38.33;;
53879;SDS011;39791;53.184;5.486;2023-08-06T00:17:09;41.78;;;38.17;;
53879;SDS011;39791;53.184;5.486;2023-08-06T00:19:34;40.38;;;36.97;;
53879;SDS011;39791;53.184;5.486;2023-08-06T00:22:00;41.97;;;38.47;;
53879;SDS011;39791;53.184;5.486;2023-08-06T00:24:26;42.60;;;38.70;;
53879;SDS011;39791;53.184;5.486;2023-08-06T00:26:52;43.85;;;40.15;;
53879;SDS011;39791;53.184;5.486;2023-08-06T00:29:18;41.55;;;38.20;;
53879;SDS011;39791;53.184;5.486;2023-08-06T00:31:43;41.45;;;37.85;;
53879;SDS011;39791;53.184;5.486;2023-08-06T00:34:09;42.10;;;38.38;;
53879;SDS011;39791;53.184;5.486;2023-08-06T00:36:34;41.65;;;38.03;;
53879;SDS011;39791;53.184;5.486;2023-08-06T00:39:00;41.70;;;38.38;;
53879;SDS011;39791;53.184;5.486;2023-08-06T00:41:26;41.15;;;37.55;;
53879;SDS011;39791;53.184;5.486;2023-08-06T00:43:51;40.42;;;37.13;;
53879;SDS011;39791;53.184;5.486;2023-08-06T00:46:17;40.88;;;37.30;;
53879;SDS011;39791;53.184;5.486;2023-08-06T00:48:42;36.67;;;33.67;;
53879;SDS011;39791;53.184;5.486;2023-08-06T00:51:09;39.20;;;35.80;;
53879;SDS011;39791;53.184;5.486;2023-08-06T00:53:35;39.15;;;35.85;;
53879;SDS011;39791;53.184;5.486;2023-08-06T00:56:05;37.65;;;34.53;;
53879;SDS011;39791;53.184;5.486;2023-08-06T00:58:32;40.17;;;36.83;;
53879;SDS011;39791;53.184;5.486;2023-08-06T01:00:59;39.85;;;36.40;;
53879;SDS011;39791;53.184;5.486;2023-08-06T01:03:24;42.63;;;39.22;;
53879;SDS011;39791;53.184;5.486;2023-08-06T01:05:50;40.97;;;37.13;;
53879;SDS011;39791;53.184;5.486;2023-08-06T01:11:06;41.78;;;37.83;;
53879;SDS011;39791;53.184;5.486;2023-08-06T01:13:37;39.30;;;35.75;;
53879;SDS011;39791;53.184;5.486;2023-08-06T01:16:18;40.17;;;36.67;;
53879;SDS011;39791;53.184;5.486;2023-08-06T01:18:46;42.05;;;38.20;;
53879;SDS011;39791;53.184;5.486;2023-08-06T01:21:14;41.13;;;37.67;;
53879;SDS011;39791;53.184;5.486;2023-08-06T01:23:40;42.33;;;38.78;;
53879;SDS011;39791;53.184;5.486;2023-08-06T01:26:15;42.13;;;38.47;;
53879;SDS011;39791;53.184;5.486;2023-08-06T01:31:42;43.90;;;40.00;;
53879;SDS011;39791;53.184;5.486;2023-08-06T01:34:22;46.53;;;42.13;;
53879;SDS011;39791;53.184;5.486;2023-08-06T01:36:52;45.40;;;41.20;;
53879;SDS011;39791;53.184;5.486;2023-08-06T01:39:19;44.97;;;40.83;;
53879;SDS011;39791;53.184;5.486;2023-08-06T01:41:47;43.38;;;39.25;;
53879;SDS011;39791;53.184;5.486;2023-08-06T01:44:13;46.00;;;42.05;;
53879;SDS011;39791;53.184;5.486;2023-08-06T01:46:39;45.53;;;41.30;;
53879;SDS011;39791;53.184;5.486;2023-08-06T01:49:05;44.80;;;40.97;;
53879;SDS011;39791;53.184;5.486;2023-08-06T01:51:30;43.88;;;39.97;;
53879;SDS011;39791;53.184;5.486;2023-08-06T01:53:56;45.50;;;41.60;;
53879;SDS011;39791;53.184;5.486;2023-08-06T01:56:22;44.88;;;40.90;;
53879;SDS011;39791;53.184;5.486;2023-08-06T01:58:47;44.40;;;40.40;;
53879;SDS011;39791;53.184;5.486;2023-08-06T02:01:13;46.63;;;42.53;;
53879;SDS011;39791;53.184;5.486;2023-08-06T02:03:38;47.08;;;43.13;;
53879;SDS011;39791;53.184;5.486;2023-08-06T02:06:04;46.42;;;42.25;;
53879;SDS011;39791;53.184;5.486;2023-08-06T02:08:29;46.80;;;42.65;;
53879;SDS011;39791;53.184;5.486;2023-08-06T02:10:55;45.20;;;41.17;;
53879;SDS011;39791;53.184;5.486;2023-08-06T02:13:20;46.35;;;42.05;;
53879;SDS011;39791;53.184;5.486;2023-08-06T02:15:46;47.63;;;43.33;;
53879;SDS011;39791;53.184;5.486;2023-08-06T02:18:14;46.47;;;42.42;;
53879;SDS011;39791;53.184;5.486;2023-08-06T02:20:40;46.80;;;42.65;;
53879;SDS011;39791;53.184;5.486;2023-08-06T02:23:06;44.88;;;40.85;;
53879;SDS011;39791;53.184;5.486;2023-08-06T02:25:32;45.08;;;41.08;;
53879;SDS011;39791;53.184;5.486;2023-08-06T02:27:58;46.65;;;42.47;;
53879;SDS011;39791;53.184;5.486;2023-08-06T02:30:23;46.30;;;41.97;;
53879;SDS011;39791;53.184;5.486;2023-08-06T02:32:49;46.00;;;41.63;;
53879;SDS011;39791;53.184;5.486;2023-08-06T02:35:14;44.25;;;40.22;;
53879;SDS011;39791;53.184;5.486;2023-08-06T02:37:40;44.30;;;40.15;;
53879;SDS011;39791;53.184;5.486;2023-08-06T02:40:05;44.28;;;40.20;;
53879;SDS011;39791;53.184;5.486;2023-08-06T02:42:31;44.83;;;40.50;;
53879;SDS011;39791;53.184;5.486;2023-08-06T02:44:57;45.58;;;41.20;;
53879;SDS011;39791;53.184;5.486;2023-08-06T02:47:23;45.05;;;40.85;;
53879;SDS011;39791;53.184;5.486;2023-08-06T02:49:48;44.60;;;40.53;;
53879;SDS011;39791;53.184;5.486;2023-08-06T02:52:14;46.03;;;42.00;;
53879;SDS011;39791;53.184;5.486;2023-08-06T02:54:40;45.90;;;41.78;;
53879;SDS011;39791;53.184;5.486;2023-08-06T02:57:05;43.92;;;39.80;;
53879;SDS011;39791;53.184;5.486;2023-08-06T02:59:31;45.47;;;41.42;;
53879;SDS011;39791;53.184;5.486;2023-08-06T03:01:57;46.53;;;42.42;;
53879;SDS011;39791;53.184;5.486;2023-08-06T03:04:23;45.78;;;41.17;;
53879;SDS011;39791;53.184;5.486;2023-08-06T03:06:49;45.08;;;40.92;;
53879;SDS011;39791;53.184;5.486;2023-08-06T03:09:15;45.50;;;41.53;;
53879;SDS011;39791;53.184;5.486;2023-08-06T03:11:41;46.33;;;42.05;;
53879;SDS011;39791;53.184;5.486;2023-08-06T03:14:07;46.70;;;42.78;;
53879;SDS011;39791;53.184;5.486;2023-08-06T03:16:32;45.03;;;40.72;;
53879;SDS011;39791;53.184;5.486;2023-08-06T03:18:58;47.67;;;43.58;;
53879;SDS011;39791;53.184;5.486;2023-08-06T03:21:24;46.20;;;42.20;;
53879;SDS011;39791;53.184;5.486;2023-08-06T03:23:50;46.22;;;42.13;;
53879;SDS011;39791;53.184;5.486;2023-08-06T03:26:15;45.75;;;41.72;;
53879;SDS011;39791;53.184;5.486;2023-08-06T03:28:41;44.33;;;40.33;;
53879;SDS011;39791;53.184;5.486;2023-08-06T03:31:06;46.22;;;42.08;;
53879;SDS011;39791;53.184;5.486;2023-08-06T03:33:32;47.67;;;43.22;;
53879;SDS011;39791;53.184;5.486;2023-08-06T03:35:57;46.45;;;41.95;;
53879;SDS011;39791;53.184;5.486;2023-08-06T03:38:23;47.10;;;42.85;;
53879;SDS011;39791;53.184;5.486;2023-08-06T03:40:49;46.60;;;42.17;;
53879;SDS011;39791;53.184;5.486;2023-08-06T03:43:15;45.47;;;41.10;;
53879;SDS011;39791;53.184;5.486;2023-08-06T03:45:40;43.88;;;40.05;;
53879;SDS011;39791;53.184;5.486;2023-08-06T03:48:07;45.70;;;41.50;;
53879;SDS011;39791;53.184;5.486;2023-08-06T03:50:33;43.88;;;40.00;;
53879;SDS011;39791;53.184;5.486;2023-08-06T03:52:58;43.15;;;39.13;;
53879;SDS011;39791;53.184;5.486;2023-08-06T03:55:24;42.60;;;38.45;;
53879;SDS011;39791;53.184;5.486;2023-08-06T03:57:50;43.80;;;39.13;;
53879;SDS011;39791;53.184;5.486;2023-08-06T04:00:15;42.72;;;38.67;;
53879;SDS011;39791;53.184;5.486;2023-08-06T04:02:41;43.60;;;39.42;;
53879;SDS011;39791;53.184;5.486;2023-08-06T04:05:06;42.33;;;38.42;;
53879;SDS011;39791;53.184;5.486;2023-08-06T04:07:32;42.45;;;38.25;;
53879;SDS011;39791;53.184;5.486;2023-08-06T04:09:59;44.63;;;40.08;;
53879;SDS011;39791;53.184;5.486;2023-08-06T04:12:26;44.30;;;40.10;;
53879;SDS011;39791;53.184;5.486;2023-08-06T04:14:52;45.67;;;41.13;;
53879;SDS011;39791;53.184;5.486;2023-08-06T04:17:19;44.13;;;39.92;;
53879;SDS011;39791;53.184;5.486;2023-08-06T04:19:54;44.67;;;40.25;;
53879;SDS011;39791;53.184;5.486;2023-08-06T04:22:23;42.63;;;38.65;;
53879;SDS011;39791;53.184;5.486;2023-08-06T04:24:49;44.75;;;40.25;;
53879;SDS011;39791;53.184;5.486;2023-08-06T04:27:15;44.83;;;40.38;;
53879;SDS011;39791;53.184;5.486;2023-08-06T04:29:41;41.28;;;37.22;;
53879;SDS011;39791;53.184;5.486;2023-08-06T04:32:08;44.97;;;40.50;;
53879;SDS011;39791;53.184;5.486;2023-08-06T04:34:35;44.80;;;40.60;;
53879;SDS011;39791;53.184;5.486;2023-08-06T04:37:01;45.83;;;41.22;;
53879;SDS011;39791;53.184;5.486;2023-08-06T04:39:28;47.92;;;42.97;;
53879;SDS011;39791;53.184;5.486;2023-08-06T04:41:55;48.08;;;42.97;;
53879;SDS011;39791;53.184;5.486;2023-08-06T04:44:22;47.58;;;42.85;;
53879;SDS011;39791;53.184;5.486;2023-08-06T04:46:47;43.95;;;39.72;;
53879;SDS011;39791;53.184;5.486;2023-08-06T04:49:13;45.35;;;41.00;;
53879;SDS011;39791;53.184;5.486;2023-08-06T04:51:38;45.80;;;41.03;;
53879;SDS011;39791;53.184;5.486;2023-08-06T04:54:04;46.95;;;42.08;;
53879;SDS011;39791;53.184;5.486;2023-08-06T04:56:29;44.15;;;39.92;;
53879;SDS011;39791;53.184;5.486;2023-08-06T04:58:55;48.10;;;43.33;;
53879;SDS011;39791;53.184;5.486;2023-08-06T05:01:21;46.95;;;42.40;;
53879;SDS011;39791;53.184;5.486;2023-08-06T05:03:47;47.15;;;42.88;;
53879;SDS011;39791;53.184;5.486;2023-08-06T05:06:12;47.03;;;42.60;;
53879;SDS011;39791;53.184;5.486;2023-08-06T05:08:38;46.35;;;41.85;;
53879;SDS011;39791;53.184;5.486;2023-08-06T05:11:03;47.47;;;43.03;;
53879;SDS011;39791;53.184;5.486;2023-08-06T05:13:29;46.83;;;42.17;;
53879;SDS011;39791;53.184;5.486;2023-08-06T05:15:55;47.67;;;43.28;;
53879;SDS011;39791;53.184;5.486;2023-08-06T05:18:20;46.85;;;42.60;;
53879;SDS011;39791;53.184;5.486;2023-08-06T05:20:46;48.25;;;43.95;;
53879;SDS011;39791;53.184;5.486;2023-08-06T05:23:11;49.55;;;45.03;;
53879;SDS011;39791;53.184;5.486;2023-08-06T05:25:37;49.95;;;44.90;;
53879;SDS011;39791;53.184;5.486;2023-08-06T05:28:03;50.08;;;45.30;;
53879;SDS011;39791;53.184;5.486;2023-08-06T05:30:29;50.80;;;45.85;;
53879;SDS011;39791;53.184;5.486;2023-08-06T05:32:54;50.30;;;45.70;;
53879;SDS011;39791;53.184;5.486;2023-08-06T05:35:20;49.15;;;44.75;;
53879;SDS011;39791;53.184;5.486;2023-08-06T05:37:47;50.42;;;46.03;;
53879;SDS011;39791;53.184;5.486;2023-08-06T05:40:13;50.90;;;46.28;;
53879;SDS011;39791;53.184;5.486;2023-08-06T05:42:39;50.78;;;46.05;;
53879;SDS011;39791;53.184;5.486;2023-08-06T05:45:05;51.15;;;46.05;;
53879;SDS011;39791;53.184;5.486;2023-08-06T05:47:31;50.28;;;45.75;;
53879;SDS011;39791;53.184;5.486;2023-08-06T05:49:57;50.47;;;45.78;;
53879;SDS011;39791;53.184;5.486;2023-08-06T05:52:22;50.30;;;45.80;;
53879;SDS011;39791;53.184;5.486;2023-08-06T05:54:48;48.75;;;44.40;;
53879;SDS011;39791;53.184;5.486;2023-08-06T05:57:13;50.55;;;45.92;;
53879;SDS011;39791;53.184;5.486;2023-08-06T05:59:40;51.85;;;46.95;;
53879;SDS011;39791;53.184;5.486;2023-08-06T06:02:05;51.35;;;46.78;;
53879;SDS011;39791;53.184;5.486;2023-08-06T06:04:31;50.97;;;46.20;;
53879;SDS011;39791;53.184;5.486;2023-08-06T06:06:56;49.78;;;45.17;;
53879;SDS011;39791;53.184;5.486;2023-08-06T06:09:22;51.22;;;46.45;;
53879;SDS011;39791;53.184;5.486;2023-08-06T06:11:47;49.47;;;44.88;;
53879;SDS011;39791;53.184;5.486;2023-08-06T06:14:15;51.92;;;47.20;;
53879;SDS011;39791;53.184;5.486;2023-08-06T06:16:44;52.53;;;47.10;;
53879;SDS011;39791;53.184;5.486;2023-08-06T06:19:10;51.22;;;46.53;;
53879;SDS011;39791;53.184;5.486;2023-08-06T06:21:36;50.60;;;45.88;;
53879;SDS011;39791;53.184;5.486;2023-08-06T06:24:02;50.42;;;45.95;;
53879;SDS011;39791;53.184;5.486;2023-08-06T06:26:28;49.38;;;44.90;;
53879;SDS011;39791;53.184;5.486;2023-08-06T06:28:55;51.17;;;46.42;;
53879;SDS011;39791;53.184;5.486;2023-08-06T06:31:20;49.95;;;45.30;;
53879;SDS011;39791;53.184;5.486;2023-08-06T06:33:46;51.38;;;46.67;;
53879;SDS011;39791;53.184;5.486;2023-08-06T06:36:11;50.25;;;45.70;;
53879;SDS011;39791;53.184;5.486;2023-08-06T06:38:37;49.65;;;45.35;;
53879;SDS011;39791;53.184;5.486;2023-08-06T06:41:03;51.10;;;46.50;;
53879;SDS011;39791;53.184;5.486;2023-08-06T06:43:29;50.95;;;46.35;;
53879;SDS011;39791;53.184;5.486;2023-08-06T06:46:01;51.10;;;46.45;;
53879;SDS011;39791;53.184;5.486;2023-08-06T06:48:27;52.30;;;47.63;;
53879;SDS011;39791;53.184;5.486;2023-08-06T06:50:53;50.72;;;46.33;;
53879;SDS011;39791;53.184;5.486;2023-08-06T06:53:19;52.65;;;48.03;;
53879;SDS011;39791;53.184;5.486;2023-08-06T06:55:44;52.95;;;48.25;;
53879;SDS011;39791;53.184;5.486;2023-08-06T06:58:10;50.25;;;45.60;;
53879;SDS011;39791;53.184;5.486;2023-08-06T07:00:36;50.65;;;46.05;;
53879;SDS011;39791;53.184;5.486;2023-08-06T07:03:02;51.35;;;46.72;;
53879;SDS011;39791;53.184;5.486;2023-08-06T07:05:28;50.03;;;45.60;;
53879;SDS011;39791;53.184;5.486;2023-08-06T07:07:53;50.55;;;45.92;;
53879;SDS011;39791;53.184;5.486;2023-08-06T07:10:19;50.60;;;46.10;;
53879;SDS011;39791;53.184;5.486;2023-08-06T07:12:44;50.63;;;46.03;;
53879;SDS011;39791;53.184;5.486;2023-08-06T07:15:10;51.47;;;46.88;;
53879;SDS011;39791;53.184;5.486;2023-08-06T07:17:36;50.53;;;46.15;;
53879;SDS011;39791;53.184;5.486;2023-08-06T07:20:02;51.00;;;46.40;;
53879;SDS011;39791;53.184;5.486;2023-08-06T07:22:28;51.95;;;47.17;;
53879;SDS011;39791;53.184;5.486;2023-08-06T07:24:53;51.47;;;46.90;;
53879;SDS011;39791;53.184;5.486;2023-08-06T07:27:19;50.65;;;46.03;;
53879;SDS011;39791;53.184;5.486;2023-08-06T07:29:44;51.47;;;46.88;;
53879;SDS011;39791;53.184;5.486;2023-08-06T07:32:10;50.45;;;45.85;;
53879;SDS011;39791;53.184;5.486;2023-08-06T07:34:35;49.40;;;45.08;;
53879;SDS011;39791;53.184;5.486;2023-08-06T07:37:01;51.70;;;47.03;;
53879;SDS011;39791;53.184;5.486;2023-08-06T07:39:27;50.00;;;45.30;;
53879;SDS011;39791;53.184;5.486;2023-08-06T07:41:53;48.00;;;43.70;;
53879;SDS011;39791;53.184;5.486;2023-08-06T07:44:19;47.25;;;43.05;;
53879;SDS011;39791;53.184;5.486;2023-08-06T07:46:45;49.55;;;45.10;;
53879;SDS011;39791;53.184;5.486;2023-08-06T07:49:10;48.47;;;43.92;;
53879;SDS011;39791;53.184;5.486;2023-08-06T07:51:36;46.65;;;42.47;;
53879;SDS011;39791;53.184;5.486;2023-08-06T07:54:02;46.88;;;42.65;;
53879;SDS011;39791;53.184;5.486;2023-08-06T07:56:28;49.65;;;45.35;;
53879;SDS011;39791;53.184;5.486;2023-08-06T07:58:53;50.97;;;46.55;;
53879;SDS011;39791;53.184;5.486;2023-08-06T08:01:19;48.67;;;44.38;;
53879;SDS011;39791;53.184;5.486;2023-08-06T08:03:44;48.13;;;43.83;;
53879;SDS011;39791;53.184;5.486;2023-08-06T08:06:10;48.45;;;44.00;;
53879;SDS011;39791;53.184;5.486;2023-08-06T08:08:36;48.30;;;44.00;;
53879;SDS011;39791;53.184;5.486;2023-08-06T08:11:03;48.00;;;43.80;;
53879;SDS011;39791;53.184;5.486;2023-08-06T08:13:30;48.65;;;44.35;;
53879;SDS011;39791;53.184;5.486;2023-08-06T08:15:57;46.70;;;42.70;;
53879;SDS011;39791;53.184;5.486;2023-08-06T08:18:23;45.80;;;41.80;;
53879;SDS011;39791;53.184;5.486;2023-08-06T08:20:49;45.70;;;41.53;;
53879;SDS011;39791;53.184;5.486;2023-08-06T08:23:15;43.50;;;39.85;;
53879;SDS011;39791;53.184;5.486;2023-08-06T08:25:40;43.33;;;39.53;;
53879;SDS011;39791;53.184;5.486;2023-08-06T08:28:06;41.50;;;38.08;;
53879;SDS011;39791;53.184;5.486;2023-08-06T08:30:32;41.30;;;37.80;;
53879;SDS011;39791;53.184;5.486;2023-08-06T08:32:58;42.90;;;39.20;;
53879;SDS011;39791;53.184;5.486;2023-08-06T08:35:23;39.25;;;35.90;;
53879;SDS011;39791;53.184;5.486;2023-08-06T08:37:49;42.35;;;38.65;;
53879;SDS011;39791;53.184;5.486;2023-08-06T08:40:16;39.35;;;35.92;;
53879;SDS011;39791;53.184;5.486;2023-08-06T08:42:42;37.95;;;34.75;;
53879;SDS011;39791;53.184;5.486;2023-08-06T08:45:14;35.53;;;32.38;;
53879;SDS011;39791;53.184;5.486;2023-08-06T08:47:41;35.22;;;32.22;;
53879;SDS011;39791;53.184;5.486;2023-08-06T08:50:11;34.60;;;31.50;;
53879;SDS011;39791;53.184;5.486;2023-08-06T08:52:38;35.63;;;32.47;;
53879;SDS011;39791;53.184;5.486;2023-08-06T08:55:06;31.75;;;29.08;;
53879;SDS011;39791;53.184;5.486;2023-08-06T08:57:32;31.58;;;28.98;;
53879;SDS011;39791;53.184;5.486;2023-08-06T08:59:58;33.80;;;31.00;;
53879;SDS011;39791;53.184;5.486;2023-08-06T09:02:24;32.58;;;29.77;;
53879;SDS011;39791;53.184;5.486;2023-08-06T09:04:52;32.08;;;29.38;;
53879;SDS011;39791;53.184;5.486;2023-08-06T09:07:19;30.90;;;28.40;;
53879;SDS011;39791;53.184;5.486;2023-08-06T09:09:48;33.30;;;30.40;;
53879;SDS011;39791;53.184;5.486;2023-08-06T09:12:15;29.65;;;27.17;;
53879;SDS011;39791;53.184;5.486;2023-08-06T09:14:42;32.00;;;29.20;;
53879;SDS011;39791;53.184;5.486;2023-08-06T09:17:08;30.23;;;27.85;;
53879;SDS011;39791;53.184;5.486;2023-08-06T09:19:35;28.42;;;26.08;;
53879;SDS011;39791;53.184;5.486;2023-08-06T09:22:02;27.08;;;24.83;;
53879;SDS011;39791;53.184;5.486;2023-08-06T09:24:27;29.00;;;26.70;;
53879;SDS011;39791;53.184;5.486;2023-08-06T09:26:53;24.15;;;22.20;;
53879;SDS011;39791;53.184;5.486;2023-08-06T09:29:19;26.40;;;24.27;;
53879;SDS011;39791;53.184;5.486;2023-08-06T09:31:48;28.10;;;25.80;;
53879;SDS011;39791;53.184;5.486;2023-08-06T09:36:46;27.70;;;25.15;;
53879;SDS011;39791;53.184;5.486;2023-08-06T09:39:13;26.65;;;24.35;;
53879;SDS011;39791;53.184;5.486;2023-08-06T09:41:40;26.30;;;23.92;;
53879;SDS011;39791;53.184;5.486;2023-08-06T09:44:11;25.75;;;23.33;;
53879;SDS011;39791;53.184;5.486;2023-08-06T09:46:49;26.02;;;23.67;;
53879;SDS011;39791;53.184;5.486;2023-08-06T09:49:17;25.83;;;23.63;;
53879;SDS011;39791;53.184;5.486;2023-08-06T09:51:43;24.15;;;22.08;;
53879;SDS011;39791;53.184;5.486;2023-08-06T09:54:11;23.73;;;21.55;;
53879;SDS011;39791;53.184;5.486;2023-08-06T09:56:37;23.00;;;20.88;;
53879;SDS011;39791;53.184;5.486;2023-08-06T09:59:06;23.23;;;21.08;;
53879;SDS011;39791;53.184;5.486;2023-08-06T10:01:33;25.02;;;22.65;;
53879;SDS011;39791;53.184;5.486;2023-08-06T10:04:00;24.52;;;22.23;;
53879;SDS011;39791;53.184;5.486;2023-08-06T10:06:28;23.40;;;21.30;;
53879;SDS011;39791;53.184;5.486;2023-08-06T10:08:54;25.27;;;23.02;;
53879;SDS011;39791;53.184;5.486;2023-08-06T10:11:24;23.05;;;21.00;;
53879;SDS011;39791;53.184;5.486;2023-08-06T10:13:52;24.30;;;22.15;;
53879;SDS011;39791;53.184;5.486;2023-08-06T10:16:40;23.58;;;21.30;;
53879;SDS011;39791;53.184;5.486;2023-08-06T10:19:07;22.00;;;20.30;;
53879;SDS011;39791;53.184;5.486;2023-08-06T10:21:37;23.25;;;21.25;;
53879;SDS011;39791;53.184;5.486;2023-08-06T10:24:03;25.48;;;23.08;;
53879;SDS011;39791;53.184;5.486;2023-08-06T10:26:35;23.98;;;21.95;;
53879;SDS011;39791;53.184;5.486;2023-08-06T10:29:01;23.60;;;21.50;;
53879;SDS011;39791;53.184;5.486;2023-08-06T10:34:23;25.63;;;23.38;;
53879;SDS011;39791;53.184;5.486;2023-08-06T10:36:48;24.92;;;22.83;;
53879;SDS011;39791;53.184;5.486;2023-08-06T10:39:14;26.33;;;24.10;;
53879;SDS011;39791;53.184;5.486;2023-08-06T10:41:42;26.40;;;24.30;;
53879;SDS011;39791;53.184;5.486;2023-08-06T10:44:09;29.33;;;26.80;;
53879;SDS011;39791;53.184;5.486;2023-08-06T10:46:35;29.40;;;26.90;;
53879;SDS011;39791;53.184;5.486;2023-08-06T10:49:03;32.53;;;29.63;;
53879;SDS011;39791;53.184;5.486;2023-08-06T10:51:29;31.38;;;28.48;;
53879;SDS011;39791;53.184;5.486;2023-08-06T10:53:55;31.73;;;28.92;;
53879;SDS011;39791;53.184;5.486;2023-08-06T10:56:23;31.50;;;28.80;;
53879;SDS011;39791;53.184;5.486;2023-08-06T10:58:51;34.00;;;30.95;;
53879;SDS011;39791;53.184;5.486;2023-08-06T11:01:19;33.40;;;30.48;;
53879;SDS011;39791;53.184;5.486;2023-08-06T11:03:46;33.25;;;30.25;;
53879;SDS011;39791;53.184;5.486;2023-08-06T11:06:17;32.22;;;29.42;;
53879;SDS011;39791;53.184;5.486;2023-08-06T11:08:50;33.67;;;30.77;;
53879;SDS011;39791;53.184;5.486;2023-08-06T11:11:18;31.33;;;28.38;;
53879;SDS011;39791;53.184;5.486;2023-08-06T11:13:47;31.00;;;28.30;;
53879;SDS011;39791;53.184;5.486;2023-08-06T11:16:14;32.92;;;29.92;;
53879;SDS011;39791;53.184;5.486;2023-08-06T11:18:44;32.20;;;29.13;;
53879;SDS011;39791;53.184;5.486;2023-08-06T11:21:10;35.33;;;32.13;;
53879;SDS011;39791;53.184;5.486;2023-08-06T11:23:38;35.63;;;32.33;;
53879;SDS011;39791;53.184;5.486;2023-08-06T11:26:05;33.92;;;30.63;;
53879;SDS011;39791;53.184;5.486;2023-08-06T11:28:30;32.22;;;29.20;;
53879;SDS011;39791;53.184;5.486;2023-08-06T11:30:56;29.80;;;27.20;;
53879;SDS011;39791;53.184;5.486;2023-08-06T11:33:26;31.88;;;29.02;;
53879;SDS011;39791;53.184;5.486;2023-08-06T11:35:52;31.92;;;29.02;;
53879;SDS011;39791;53.184;5.486;2023-08-06T11:38:21;32.25;;;29.25;;
53879;SDS011;39791;53.184;5.486;2023-08-06T11:40:47;30.42;;;27.65;;
53879;SDS011;39791;53.184;5.486;2023-08-06T11:43:13;29.38;;;26.95;;
53879;SDS011;39791;53.184;5.486;2023-08-06T11:45:39;29.48;;;26.90;;
53879;SDS011;39791;53.184;5.486;2023-08-06T11:48:05;28.25;;;25.88;;
53879;SDS011;39791;53.184;5.486;2023-08-06T11:50:35;26.55;;;24.17;;
53879;SDS011;39791;53.184;5.486;2023-08-06T11:53:03;26.00;;;23.70;;
53879;SDS011;39791;53.184;5.486;2023-08-06T11:55:28;26.23;;;23.92;;
53879;SDS011;39791;53.184;5.486;2023-08-06T11:57:54;24.65;;;22.65;;
53879;SDS011;39791;53.184;5.486;2023-08-06T12:00:22;26.30;;;24.10;;
53879;SDS011;39791;53.184;5.486;2023-08-06T12:02:50;25.55;;;23.08;;
53879;SDS011;39791;53.184;5.486;2023-08-06T12:05:21;25.95;;;23.80;;
53879;SDS011;39791;53.184;5.486;2023-08-06T12:07:57;26.52;;;23.92;;
53879;SDS011;39791;53.184;5.486;2023-08-06T12:10:27;30.23;;;27.20;;
53879;SDS011;39791;53.184;5.486;2023-08-06T12:12:54;29.52;;;26.77;;
53879;SDS011;39791;53.184;5.486;2023-08-06T12:15:19;29.90;;;27.10;;
53879;SDS011;39791;53.184;5.486;2023-08-06T12:17:45;29.67;;;26.48;;
53879;SDS011;39791;53.184;5.486;2023-08-06T12:20:11;30.13;;;27.00;;
53879;SDS011;39791;53.184;5.486;2023-08-06T12:22:37;28.95;;;25.90;;
53879;SDS011;39791;53.184;5.486;2023-08-06T12:25:05;31.13;;;28.02;;
53879;SDS011;39791;53.184;5.486;2023-08-06T12:27:36;27.95;;;25.27;;
53879;SDS011;39791;53.184;5.486;2023-08-06T12:30:09;29.52;;;26.48;;
53879;SDS011;39791;53.184;5.486;2023-08-06T12:32:35;29.00;;;25.98;;
53879;SDS011;39791;53.184;5.486;2023-08-06T12:35:01;31.60;;;28.40;;
53879;SDS011;39791;53.184;5.486;2023-08-06T12:37:28;29.42;;;26.27;;
53879;SDS011;39791;53.184;5.486;2023-08-06T12:39:53;30.65;;;27.73;;
53879;SDS011;39791;53.184;5.486;2023-08-06T12:42:19;32.10;;;29.00;;
53879;SDS011;39791;53.184;5.486;2023-08-06T12:44:45;27.55;;;24.90;;
53879;SDS011;39791;53.184;5.486;2023-08-06T12:47:11;29.35;;;26.35;;
53879;SDS011;39791;53.184;5.486;2023-08-06T12:49:37;28.60;;;26.10;;
53879;SDS011;39791;53.184;5.486;2023-08-06T12:52:02;32.40;;;29.40;;
53879;SDS011;39791;53.184;5.486;2023-08-06T12:54:31;30.40;;;27.50;;
53879;SDS011;39791;53.184;5.486;2023-08-06T12:57:01;33.55;;;30.17;;
53879;SDS011;39791;53.184;5.486;2023-08-06T12:59:28;33.03;;;29.73;;
53879;SDS011;39791;53.184;5.486;2023-08-06T13:01:53;35.38;;;32.00;;
53879;SDS011;39791;53.184;5.486;2023-08-06T13:04:19;33.63;;;30.48;;
53879;SDS011;39791;53.184;5.486;2023-08-06T13:06:44;34.70;;;31.48;;
53879;SDS011;39791;53.184;5.486;2023-08-06T13:09:10;30.13;;;27.15;;
53879;SDS011;39791;53.184;5.486;2023-08-06T13:11:36;29.05;;;26.33;;
53879;SDS011;39791;53.184;5.486;2023-08-06T13:14:13;26.73;;;24.27;;
53879;SDS011;39791;53.184;5.486;2023-08-06T13:16:40;30.33;;;27.70;;
53879;SDS011;39791;53.184;5.486;2023-08-06T13:19:07;29.70;;;26.67;;
53879;SDS011;39791;53.184;5.486;2023-08-06T13:21:33;33.35;;;30.15;;
53879;SDS011;39791;53.184;5.486;2023-08-06T13:24:01;30.00;;;27.40;;
53879;SDS011;39791;53.184;5.486;2023-08-06T13:26:28;31.25;;;28.55;;
53879;SDS011;39791;53.184;5.486;2023-08-06T13:28:56;33.72;;;30.77;;
53879;SDS011;39791;53.184;5.486;2023-08-06T13:31:26;31.48;;;28.88;;
53879;SDS011;39791;53.184;5.486;2023-08-06T13:33:53;32.45;;;29.55;;
53879;SDS011;39791;53.184;5.486;2023-08-06T13:36:20;34.00;;;30.90;;
53879;SDS011;39791;53.184;5.486;2023-08-06T13:38:49;34.85;;;31.90;;
53879;SDS011;39791;53.184;5.486;2023-08-06T13:41:15;35.05;;;32.05;;
53879;SDS011;39791;53.184;5.486;2023-08-06T13:43:41;35.63;;;32.53;;
53879;SDS011;39791;53.184;5.486;2023-08-06T13:46:07;34.00;;;31.10;;
53879;SDS011;39791;53.184;5.486;2023-08-06T13:48:34;34.42;;;31.42;;
53879;SDS011;39791;53.184;5.486;2023-08-06T13:50:59;37.75;;;34.53;;
53879;SDS011;39791;53.184;5.486;2023-08-06T13:53:25;39.45;;;35.88;;
53879;SDS011;39791;53.184;5.486;2023-08-06T13:55:54;38.15;;;34.70;;
53879;SDS011;39791;53.184;5.486;2023-08-06T13:58:21;39.53;;;36.03;;
53879;SDS011;39791;53.184;5.486;2023-08-06T14:00:47;40.20;;;36.53;;
53879;SDS011;39791;53.184;5.486;2023-08-06T14:03:12;39.08;;;35.58;;
53879;SDS011;39791;53.184;5.486;2023-08-06T14:05:38;35.47;;;32.58;;
53879;SDS011;39791;53.184;5.486;2023-08-06T14:08:03;37.30;;;33.80;;
53879;SDS011;39791;53.184;5.486;2023-08-06T14:10:29;32.67;;;29.85;;
53879;SDS011;39791;53.184;5.486;2023-08-06T14:12:55;34.30;;;30.95;;
53879;SDS011;39791;53.184;5.486;2023-08-06T14:15:20;31.27;;;28.65;;
53879;SDS011;39791;53.184;5.486;2023-08-06T14:17:46;29.77;;;27.25;;
53879;SDS011;39791;53.184;5.486;2023-08-06T14:20:12;28.30;;;25.90;;
53879;SDS011;39791;53.184;5.486;2023-08-06T14:22:38;29.50;;;27.10;;
53879;SDS011;39791;53.184;5.486;2023-08-06T14:25:03;26.77;;;24.67;;
53879;SDS011;39791;53.184;5.486;2023-08-06T14:27:29;24.05;;;22.15;;